createdAt,value
2023-04-25T00:01:21.231Z,12.52
2023-04-25T00:03:48.168Z,14.95
2023-04-25T00:06:15.463Z,13.13
2023-04-25T00:08:42.276Z,17.55
2023-04-25T00:11:08.920Z,15.60
2023-04-25T00:13:35.685Z,16.52
2023-04-25T00:16:03.588Z,15.45
2023-04-25T00:18:30.282Z,15.05
2023-04-25T00:20:57.285Z,17.08
2023-04-25T00:23:24.967Z,17.73
2023-04-25T00:25:52.031Z,15.02
2023-04-25T00:28:18.773Z,18.63
2023-04-25T00:30:45.480Z,13.80
2023-04-25T00:33:12.204Z,14.40
2023-04-25T00:35:39.266Z,17.30
2023-04-25T00:38:05.919Z,17.75
2023-04-25T00:40:32.589Z,15.15
2023-04-25T00:42:59.313Z,13.30
2023-04-25T00:45:30.507Z,14.23
2023-04-25T00:47:57.686Z,19.00
2023-04-25T00:50:25.883Z,10.80
2023-04-25T00:52:53.157Z,13.73
2023-04-25T00:55:20.827Z,12.48
2023-04-25T00:57:47.886Z,12.13
2023-04-25T01:00:15.644Z,12.25
2023-04-25T01:02:43.507Z,12.70
2023-04-25T01:05:10.548Z,13.68
2023-04-25T01:07:37.489Z,18.08
2023-04-25T01:10:04.935Z,15.23
2023-04-25T01:12:31.880Z,12.02
2023-04-25T01:14:58.701Z,13.07
2023-04-25T01:17:25.422Z,18.50
2023-04-25T01:19:52.516Z,14.18
2023-04-25T01:22:19.347Z,15.80
2023-04-25T01:24:46.398Z,15.93
2023-04-25T01:27:13.152Z,14.77
2023-04-25T01:29:40.496Z,16.15
2023-04-25T01:32:07.769Z,12.77
2023-04-25T01:34:34.452Z,14.00
2023-04-25T01:37:02.748Z,13.20
2023-04-25T01:39:29.726Z,14.32
2023-04-25T01:41:57.568Z,19.08
2023-04-25T01:44:24.540Z,14.38
2023-04-25T01:46:51.210Z,17.63
2023-04-25T01:49:18.004Z,23.48
2023-04-25T01:51:45.159Z,21.35
2023-04-25T01:54:12.399Z,20.05
2023-04-25T01:56:40.280Z,16.98
2023-04-25T01:59:07.166Z,19.00
2023-04-25T02:01:34.244Z,24.10
2023-04-25T02:04:01.289Z,16.63
2023-04-25T02:06:28.154Z,14.70
2023-04-25T02:08:54.754Z,16.60
2023-04-25T02:11:21.453Z,15.60
2023-04-25T02:13:48.160Z,16.13
2023-04-25T02:16:15.010Z,17.58
2023-04-25T02:18:41.871Z,18.60
2023-04-25T02:21:08.491Z,18.42
2023-04-25T02:23:35.468Z,19.73
2023-04-25T02:26:02.163Z,19.95
2023-04-25T02:28:28.780Z,14.32
2023-04-25T02:30:55.810Z,18.70
2023-04-25T02:33:22.549Z,25.27
2023-04-25T02:35:49.263Z,21.60
2023-04-25T02:38:16.137Z,18.00
2023-04-25T02:40:42.799Z,18.98
2023-04-25T02:43:09.583Z,19.13
2023-04-25T02:45:36.444Z,21.13
2023-04-25T02:48:04.244Z,19.67
2023-04-25T02:50:30.961Z,22.55
2023-04-25T02:52:57.697Z,17.30
2023-04-25T02:55:26.329Z,20.23
2023-04-25T02:57:56.382Z,19.05
2023-04-25T03:00:23.495Z,15.88
2023-04-25T03:02:50.298Z,20.75
2023-04-25T03:05:17.684Z,17.88
2023-04-25T03:07:45.593Z,19.35
2023-04-25T03:10:12.815Z,22.33
2023-04-25T03:12:39.451Z,20.73
2023-04-25T03:15:06.695Z,20.83
2023-04-25T03:17:33.418Z,16.50
2023-04-25T03:20:00.402Z,19.17
2023-04-25T03:22:27.147Z,18.10
2023-04-25T03:24:53.805Z,15.05
2023-04-25T03:27:20.395Z,17.30
2023-04-25T03:29:47.088Z,12.52
2023-04-25T03:32:14.023Z,16.33
2023-04-25T03:34:41.022Z,17.02
2023-04-25T03:37:07.640Z,15.25
2023-04-25T03:39:34.351Z,13.50
2023-04-25T03:42:00.981Z,16.55
2023-04-25T03:44:27.642Z,14.65
2023-04-25T03:46:54.266Z,15.68
2023-04-25T03:49:20.926Z,17.77
2023-04-25T03:51:47.642Z,18.75
2023-04-25T03:54:14.237Z,18.92
2023-04-25T03:56:40.888Z,19.83
2023-04-25T03:59:07.570Z,19.52
2023-04-25T04:01:34.315Z,14.00
2023-04-25T04:04:01.189Z,16.92
2023-04-25T04:06:28.041Z,16.42
2023-04-25T04:08:54.731Z,14.35
2023-04-25T04:11:21.483Z,12.57
2023-04-25T04:13:48.414Z,17.13
2023-04-25T04:16:15.880Z,21.48
2023-04-25T04:18:42.624Z,23.17
2023-04-25T04:21:09.219Z,18.92
2023-04-25T04:23:38.277Z,16.70
2023-04-25T04:26:06.331Z,16.13
2023-04-25T04:28:32.909Z,17.42
2023-04-25T04:30:59.576Z,14.93
2023-04-25T04:33:26.526Z,16.10
2023-04-25T04:35:54.457Z,22.48
2023-04-25T04:38:22.794Z,19.33
2023-04-25T04:40:49.422Z,17.20
2023-04-25T04:43:18.108Z,15.23
2023-04-25T04:45:45.488Z,19.80
2023-04-25T04:48:15.134Z,25.73
2023-04-25T04:53:09.148Z,18.50
2023-04-25T04:55:35.805Z,19.25
2023-04-25T04:58:02.442Z,19.00
2023-04-25T05:00:30.332Z,17.45
2023-04-25T05:02:57.662Z,19.92
2023-04-25T05:05:24.933Z,20.67
2023-04-25T05:07:51.733Z,23.55
2023-04-25T05:10:19.924Z,18.30
2023-04-25T05:12:46.704Z,14.02
2023-04-25T05:15:13.543Z,18.67
2023-04-25T05:17:40.521Z,16.38
2023-04-25T05:20:09.867Z,16.05
2023-04-25T05:22:36.883Z,15.32
2023-04-25T05:25:04.604Z,19.98
2023-04-25T05:27:31.450Z,16.95
2023-04-25T05:29:58.100Z,13.85
2023-04-25T05:32:26.124Z,19.00
2023-04-25T05:34:53.004Z,20.13
2023-04-25T05:37:19.620Z,15.63
2023-04-25T05:39:46.275Z,20.92
2023-04-25T05:42:12.888Z,9.77
2023-04-25T05:44:39.646Z,12.73
2023-04-25T05:47:06.379Z,11.95
2023-04-25T05:49:33.113Z,13.73
2023-04-25T05:51:59.819Z,16.00
2023-04-25T05:54:26.450Z,14.43
2023-04-25T05:56:53.065Z,9.52
2023-04-25T05:59:19.792Z,8.75
2023-04-25T06:01:47.644Z,10.95
2023-04-25T06:04:14.503Z,10.05
2023-04-25T06:06:41.433Z,12.68
2023-04-25T06:09:08.162Z,12.90
2023-04-25T06:11:34.908Z,11.00
2023-04-25T06:14:01.626Z,14.82
2023-04-25T06:16:28.363Z,10.45
2023-04-25T06:18:55.139Z,20.25
2023-04-25T06:21:21.779Z,15.98
2023-04-25T06:23:48.519Z,17.60
2023-04-25T06:26:15.658Z,14.48
2023-04-25T06:28:42.353Z,15.07
2023-04-25T06:31:09.056Z,12.30
2023-04-25T06:33:35.672Z,12.85
2023-04-25T06:36:02.251Z,14.75
2023-04-25T06:38:28.964Z,17.85
2023-04-25T06:40:55.580Z,10.85
2023-04-25T06:43:22.170Z,14.50
2023-04-25T06:45:48.900Z,9.27
2023-04-25T06:48:16.513Z,13.68
2023-04-25T06:50:43.192Z,16.80
2023-04-25T06:53:09.892Z,9.90
2023-04-25T06:55:36.647Z,13.02
2023-04-25T06:58:04.211Z,16.00
2023-04-25T07:00:31.334Z,14.55
2023-04-25T07:02:58.391Z,12.40
2023-04-25T07:05:25.664Z,15.15
2023-04-25T07:07:52.279Z,8.00
2023-04-25T07:10:18.930Z,12.20
2023-04-25T07:12:45.638Z,13.07
2023-04-25T07:15:12.707Z,6.72
2023-04-25T07:17:39.774Z,6.32
2023-04-25T07:20:07.247Z,7.28
2023-04-25T07:22:34.077Z,9.07
2023-04-25T07:25:01.237Z,6.93
2023-04-25T07:27:27.960Z,5.93
2023-04-25T07:29:54.626Z,7.47
2023-04-25T07:32:21.396Z,6.63
2023-04-25T07:34:48.245Z,4.00
2023-04-25T07:37:15.262Z,4.15
2023-04-25T07:39:42.867Z,15.40
2023-04-25T07:42:09.650Z,8.00
2023-04-25T07:44:40.878Z,8.15
2023-04-25T07:47:08.139Z,8.80
2023-04-25T07:49:36.286Z,5.40
2023-04-25T07:52:03.704Z,7.22
2023-04-25T07:54:30.795Z,3.80
2023-04-25T07:56:57.407Z,8.98
2023-04-25T07:59:24.096Z,8.57
2023-04-25T08:01:51.411Z,7.30
2023-04-25T08:04:18.390Z,8.68
2023-04-25T08:06:45.219Z,6.25
2023-04-25T08:09:11.968Z,6.93
2023-04-25T08:11:38.959Z,6.70
2023-04-25T08:14:06.552Z,4.15
2023-04-25T08:16:33.306Z,8.60
2023-04-25T08:19:04.282Z,10.00
2023-04-25T08:21:31.375Z,5.88
2023-04-25T08:23:59.463Z,6.15
2023-04-25T08:26:26.554Z,8.55
2023-04-25T08:28:53.585Z,7.18
2023-04-25T08:31:20.395Z,8.07
2023-04-25T08:33:47.168Z,9.25
2023-04-25T08:36:15.829Z,6.57
2023-04-25T08:38:45.978Z,6.28
2023-04-25T08:41:13.372Z,5.78
2023-04-25T08:43:42.948Z,8.23
2023-04-25T08:46:10.620Z,10.30
2023-04-25T08:48:37.473Z,11.63
2023-04-25T08:53:36.190Z,5.63
2023-04-25T08:56:03.551Z,8.63
2023-04-25T08:58:30.657Z,6.28
2023-04-25T09:00:57.447Z,5.22
2023-04-25T09:03:24.221Z,8.45
2023-04-25T09:05:51.933Z,6.32
2023-04-25T09:08:18.665Z,5.75
2023-04-25T09:10:45.270Z,8.88
2023-04-25T09:13:14.578Z,6.20
2023-04-25T09:15:59.599Z,7.70
2023-04-25T09:18:34.187Z,11.43
2023-04-25T09:21:14.622Z,7.82
2023-04-25T09:23:45.999Z,11.85
2023-04-25T09:26:16.721Z,5.82
2023-04-25T09:28:44.085Z,6.68
2023-04-25T09:31:22.001Z,7.85
2023-04-25T09:33:49.089Z,8.10
2023-04-25T09:36:17.724Z,9.00
2023-04-25T09:38:46.207Z,7.97
2023-04-25T09:41:13.444Z,10.32
2023-04-25T09:43:40.634Z,7.90
2023-04-25T09:46:12.159Z,6.68
2023-04-25T09:48:39.213Z,5.82
2023-04-25T09:51:12.178Z,7.07
2023-04-25T09:53:42.524Z,7.18
2023-04-25T09:56:11.330Z,9.40
2023-04-25T09:58:40.088Z,5.57
2023-04-25T10:01:08.786Z,9.57
2023-04-25T10:03:38.051Z,7.23
2023-04-25T10:06:15.268Z,6.63
2023-04-25T10:08:42.604Z,7.30
2023-04-25T10:11:09.912Z,13.15
2023-04-25T10:13:37.154Z,7.65
2023-04-25T10:16:05.352Z,8.48
2023-04-25T10:18:33.590Z,6.90
2023-04-25T10:21:05.550Z,7.07
2023-04-25T10:23:33.107Z,9.80
2023-04-25T10:26:00.969Z,8.02
2023-04-25T10:28:27.810Z,5.95
2023-04-25T10:31:05.356Z,7.60
2023-04-25T10:33:43.925Z,10.80
2023-04-25T10:36:24.321Z,15.02
2023-04-25T10:38:52.272Z,11.05
2023-04-25T10:41:21.322Z,11.10
2023-04-25T10:43:49.321Z,6.22
2023-04-25T10:46:23.335Z,15.73
2023-04-25T10:48:54.953Z,9.07
2023-04-25T10:51:51.576Z,11.23
2023-04-25T10:54:24.042Z,8.95
2023-04-25T10:56:51.821Z,9.57
2023-04-25T10:59:19.855Z,11.48
2023-04-25T11:01:57.449Z,10.25
2023-04-25T11:04:38.509Z,7.53
2023-04-25T11:07:11.199Z,7.38
2023-04-25T11:09:41.019Z,9.05
2023-04-25T11:12:09.783Z,7.75
2023-04-25T11:14:37.305Z,14.00
2023-04-25T11:17:04.243Z,9.02
2023-04-25T11:19:31.505Z,13.23
2023-04-25T11:21:59.479Z,7.63
2023-04-25T11:24:37.855Z,11.68
2023-04-25T11:27:06.713Z,5.50
2023-04-25T11:29:34.574Z,6.65
2023-04-25T11:32:02.257Z,6.57
2023-04-25T11:34:34.118Z,5.43
2023-04-25T11:37:02.914Z,9.13
2023-04-25T11:39:30.363Z,8.80
2023-04-25T11:41:57.171Z,10.05
2023-04-25T11:44:24.187Z,8.20
2023-04-25T11:46:50.882Z,5.97
2023-04-25T11:49:19.103Z,8.82
2023-04-25T11:51:48.261Z,11.35
2023-04-25T11:54:15.986Z,10.00
2023-04-25T11:56:46.679Z,4.53
2023-04-25T11:59:14.255Z,7.22
2023-04-25T12:01:48.440Z,6.32
2023-04-25T12:04:23.339Z,9.02
2023-04-25T12:06:55.534Z,10.65
2023-04-25T12:09:29.764Z,10.75
2023-04-25T12:11:59.010Z,13.80
2023-04-25T12:14:31.508Z,7.95
2023-04-25T12:17:01.165Z,11.35
2023-04-25T12:19:36.545Z,11.75
2023-04-25T12:22:06.926Z,11.18
2023-04-25T12:24:37.080Z,7.40
2023-04-25T12:27:07.123Z,11.30
2023-04-25T12:29:48.863Z,11.52
2023-04-25T12:32:16.755Z,8.88
2023-04-25T12:34:43.565Z,10.20
2023-04-25T12:37:10.681Z,9.23
2023-04-25T12:39:37.532Z,9.95
2023-04-25T12:42:06.192Z,7.32
2023-04-25T12:44:35.179Z,7.00
2023-04-25T12:47:02.076Z,7.10
2023-04-25T12:49:28.917Z,7.22
2023-04-25T12:51:55.597Z,8.07
2023-04-25T12:54:22.378Z,8.23
2023-04-25T12:56:49.009Z,6.68
2023-04-25T12:59:16.333Z,9.32
2023-04-25T13:01:43.809Z,4.40
2023-04-25T13:04:10.744Z,7.53
2023-04-25T13:06:37.547Z,5.15
2023-04-25T13:09:04.454Z,8.80
2023-04-25T13:14:03.019Z,9.23
2023-04-25T13:16:29.752Z,12.25
2023-04-25T13:18:57.324Z,8.25
2023-04-25T13:21:24.347Z,8.88
2023-04-25T13:23:51.325Z,12.20
2023-04-25T13:26:18.361Z,8.05
2023-04-25T13:28:45.160Z,9.98
2023-04-25T13:31:12.114Z,8.65
2023-04-25T13:33:38.853Z,8.65
2023-04-25T13:36:06.519Z,6.45
2023-04-25T13:38:33.427Z,9.63
2023-04-25T13:41:00.198Z,9.25
2023-04-25T13:43:26.832Z,7.13
2023-04-25T13:45:53.675Z,7.40
2023-04-25T13:48:20.998Z,9.68
2023-04-25T13:50:47.638Z,8.88
2023-04-25T13:53:14.651Z,5.75
2023-04-25T13:55:41.435Z,8.75
2023-04-25T13:58:09.066Z,8.40
2023-04-25T14:00:40.349Z,4.57
2023-04-25T14:03:08.822Z,6.78
2023-04-25T14:05:40.377Z,5.73
2023-04-25T14:08:08.429Z,7.93
2023-04-25T14:10:35.713Z,6.80
2023-04-25T14:13:04.251Z,9.05
2023-04-25T14:15:34.727Z,6.87
2023-04-25T14:18:02.267Z,7.72
2023-04-25T14:20:29.847Z,13.10
2023-04-25T14:22:58.111Z,8.35
2023-04-25T14:25:25.426Z,9.57
2023-04-25T14:27:52.119Z,4.90
2023-04-25T14:30:19.956Z,8.73
2023-04-25T14:32:47.013Z,5.70
2023-04-25T14:35:13.849Z,6.60
2023-04-25T14:37:41.149Z,6.25
2023-04-25T14:40:13.070Z,7.63
2023-04-25T14:42:40.842Z,7.38
2023-04-25T14:45:09.503Z,8.07
2023-04-25T14:47:38.003Z,9.33
2023-04-25T14:50:05.570Z,7.57
2023-04-25T14:52:32.262Z,13.70
2023-04-25T14:55:01.105Z,5.20
2023-04-25T14:57:27.959Z,6.25
2023-04-25T14:59:54.558Z,6.43
2023-04-25T15:02:21.433Z,9.45
2023-04-25T15:04:48.100Z,5.80
2023-04-25T15:07:16.324Z,9.68
2023-04-25T15:09:44.482Z,6.70
2023-04-25T15:12:12.189Z,8.10
2023-04-25T15:14:38.801Z,5.97
2023-04-25T15:17:05.496Z,9.57
2023-04-25T15:19:32.224Z,7.28
2023-04-25T15:22:02.226Z,6.20
2023-04-25T15:24:29.671Z,6.47
2023-04-25T15:26:56.392Z,8.27
2023-04-25T15:29:23.069Z,8.18
2023-04-25T15:31:49.688Z,9.75
2023-04-25T15:34:16.474Z,9.27
2023-04-25T15:36:43.080Z,9.13
2023-04-25T15:39:09.679Z,8.88
2023-04-25T15:41:37.582Z,7.25
2023-04-25T15:44:04.339Z,6.60
2023-04-25T15:46:31.410Z,11.50
2023-04-25T15:48:58.147Z,8.95
2023-04-25T15:51:24.837Z,3.53
2023-04-25T15:53:51.710Z,11.65
2023-04-25T15:56:18.957Z,5.40
2023-04-25T15:58:45.666Z,10.23
2023-04-25T16:01:12.449Z,5.97
2023-04-25T16:03:39.492Z,7.00
2023-04-25T16:06:06.486Z,7.50
2023-04-25T16:08:35.827Z,5.93
2023-04-25T16:11:03.228Z,8.77
2023-04-25T16:13:30.238Z,9.07
2023-04-25T16:15:57.040Z,4.80
2023-04-25T16:18:23.843Z,4.55
2023-04-25T16:20:50.690Z,8.88
2023-04-25T16:23:18.162Z,7.78
2023-04-25T16:25:44.986Z,7.97
2023-04-25T16:28:11.700Z,5.00
2023-04-25T16:30:38.446Z,9.48
2023-04-25T16:33:05.130Z,10.45
2023-04-25T16:35:32.476Z,13.05
2023-04-25T16:37:59.270Z,10.00
2023-04-25T16:40:26.850Z,10.85
2023-04-25T16:42:53.439Z,10.65
2023-04-25T16:45:21.158Z,7.40
2023-04-25T16:47:47.952Z,11.70
2023-04-25T16:50:15.214Z,13.80
2023-04-25T16:52:44.275Z,9.57
2023-04-25T16:55:11.298Z,7.15
2023-04-25T16:57:38.255Z,8.27
2023-04-25T17:00:06.453Z,10.50
2023-04-25T17:02:33.482Z,13.52
2023-04-25T17:05:00.514Z,6.47
2023-04-25T17:07:27.887Z,7.97
2023-04-25T17:09:54.697Z,6.35
2023-04-25T17:12:21.784Z,8.77
2023-04-25T17:14:49.859Z,10.18
2023-04-25T17:17:18.618Z,10.13
2023-04-25T17:19:45.834Z,6.90
2023-04-25T17:22:12.718Z,8.18
2023-04-25T17:24:40.682Z,4.90
2023-04-25T17:27:07.400Z,9.02
2023-04-25T17:29:35.139Z,8.27
2023-04-25T17:32:02.019Z,7.13
2023-04-25T17:34:29.131Z,8.68
2023-04-25T17:36:55.922Z,6.22
2023-04-25T17:39:22.553Z,7.57
2023-04-25T17:41:49.440Z,10.43
2023-04-25T17:44:16.255Z,4.55
2023-04-25T17:46:42.909Z,10.30
2023-04-25T17:49:09.602Z,10.90
2023-04-25T17:51:36.259Z,3.78
2023-04-25T17:54:02.986Z,11.02
2023-04-25T17:56:30.478Z,4.28
2023-04-25T17:58:57.289Z,7.75
2023-04-25T18:01:24.134Z,10.68
2023-04-25T18:03:51.779Z,4.60
2023-04-25T18:06:19.320Z,8.60
2023-04-25T18:08:47.027Z,9.07
2023-04-25T18:11:13.880Z,9.23
2023-04-25T18:13:41.215Z,9.35
2023-04-25T18:16:08.175Z,7.18
2023-04-25T18:18:36.205Z,6.20
2023-04-25T18:21:05.178Z,5.47
2023-04-25T18:23:34.295Z,10.05
2023-04-25T18:26:02.316Z,8.05
2023-04-25T18:28:29.393Z,6.53
2023-04-25T18:30:56.618Z,4.90
2023-04-25T18:33:23.427Z,9.40
2023-04-25T18:35:58.671Z,5.78
2023-04-25T18:41:06.223Z,6.90
2023-04-25T18:43:44.455Z,5.43
2023-04-25T18:46:11.374Z,13.07
2023-04-25T18:48:38.025Z,11.68
2023-04-25T18:51:05.467Z,10.70
2023-04-25T18:53:32.316Z,5.55
2023-04-25T18:55:58.886Z,8.10
2023-04-25T18:58:26.334Z,7.35
2023-04-25T19:00:53.399Z,5.93
2023-04-25T19:03:21.930Z,7.05
2023-04-25T19:05:48.665Z,6.63
2023-04-25T19:08:15.381Z,3.97
2023-04-25T19:10:42.025Z,5.32
2023-04-25T19:13:08.707Z,10.75
2023-04-25T19:15:35.799Z,6.30
2023-04-25T19:18:02.788Z,9.20
2023-04-25T19:20:29.462Z,7.55
2023-04-25T19:22:56.159Z,7.32
2023-04-25T19:25:24.595Z,7.25
2023-04-25T19:27:51.359Z,6.13
2023-04-25T19:30:18.008Z,6.25
2023-04-25T19:32:45.390Z,9.85
2023-04-25T19:35:12.371Z,11.52
2023-04-25T19:37:41.018Z,4.13
2023-04-25T19:40:08.485Z,7.97
2023-04-25T19:42:35.593Z,4.78
2023-04-25T19:45:02.262Z,5.20
2023-04-25T19:47:29.020Z,5.38
2023-04-25T19:49:55.747Z,8.05
2023-04-25T19:52:22.501Z,5.80
2023-04-25T19:54:49.120Z,4.18
2023-04-25T19:57:15.721Z,9.02
2023-04-25T19:59:45.756Z,3.05
2023-04-25T20:02:12.364Z,5.55
2023-04-25T20:04:39.211Z,6.82
2023-04-25T20:07:05.818Z,3.63
2023-04-25T20:09:32.484Z,7.25
2023-04-25T20:11:59.202Z,6.70
2023-04-25T20:14:26.080Z,7.00
2023-04-25T20:16:53.187Z,5.15
2023-04-25T20:19:20.056Z,3.22
2023-04-25T20:21:47.171Z,7.53
2023-04-25T20:24:13.870Z,6.03
2023-04-25T20:26:40.867Z,6.88
2023-04-25T20:29:07.755Z,6.25
2023-04-25T20:31:36.694Z,8.27
2023-04-25T20:34:03.856Z,6.45
2023-04-25T20:36:31.894Z,10.50
2023-04-25T20:38:58.618Z,4.28
2023-04-25T20:41:25.400Z,4.13
2023-04-25T20:43:53.239Z,7.05
2023-04-25T20:46:20.546Z,3.85
2023-04-25T20:48:47.304Z,7.25
2023-04-25T20:51:14.379Z,4.75
2023-04-25T20:53:41.125Z,3.97
2023-04-25T20:56:07.726Z,8.45
2023-04-25T20:58:34.658Z,6.72
2023-04-25T21:01:01.515Z,7.90
2023-04-25T21:03:28.663Z,5.15
2023-04-25T21:05:55.376Z,5.88
2023-04-25T21:08:22.069Z,6.00
2023-04-25T21:10:48.759Z,4.07
2023-04-25T21:13:15.589Z,6.60
2023-04-25T21:15:42.241Z,5.80
2023-04-25T21:18:08.921Z,6.53
2023-04-25T21:20:36.164Z,3.35
2023-04-25T21:23:02.965Z,7.45
2023-04-25T21:25:31.625Z,7.95
2023-04-25T21:27:59.286Z,4.13
2023-04-25T21:30:26.759Z,7.35
2023-04-25T21:32:53.965Z,7.90
2023-04-25T21:35:22.337Z,9.20
2023-04-25T21:37:49.414Z,8.00
2023-04-25T21:40:16.309Z,6.30
2023-04-25T21:42:44.696Z,4.30
2023-04-25T21:45:11.927Z,7.28
2023-04-25T21:47:39.111Z,6.20
2023-04-25T21:50:06.358Z,8.50
2023-04-25T21:52:33.128Z,8.65
2023-04-25T21:54:59.866Z,5.72
2023-04-25T21:57:26.521Z,13.05
2023-04-25T21:59:53.568Z,5.90
2023-04-25T22:02:20.448Z,5.20
2023-04-25T22:04:47.631Z,8.68
2023-04-25T22:07:15.214Z,4.95
2023-04-25T22:09:53.669Z,6.53
2023-04-25T22:12:21.542Z,7.78
2023-04-25T22:14:48.865Z,5.57
2023-04-25T22:17:15.560Z,6.07
2023-04-25T22:19:43.158Z,10.23
2023-04-25T22:22:09.941Z,11.95
2023-04-25T22:24:36.737Z,9.10
2023-04-25T22:27:03.474Z,9.38
2023-04-25T22:29:30.216Z,7.85
2023-04-25T22:31:57.032Z,7.97
2023-04-25T22:34:23.713Z,15.13
2023-04-25T22:36:50.431Z,7.38
2023-04-25T22:39:17.006Z,7.75
2023-04-25T22:41:43.816Z,7.75
2023-04-25T22:44:11.190Z,6.72
2023-04-25T22:46:37.863Z,5.78
2023-04-25T22:49:05.174Z,10.70
2023-04-25T22:51:32.195Z,8.05
2023-04-25T22:53:59.255Z,7.47
2023-04-25T22:56:27.025Z,8.18
2023-04-25T22:58:54.091Z,13.65
2023-04-25T23:01:21.211Z,10.57
2023-04-25T23:03:48.602Z,4.07
2023-04-25T23:06:15.732Z,10.93
2023-04-25T23:08:42.370Z,6.28
2023-04-25T23:11:09.193Z,4.72
2023-04-25T23:13:38.916Z,10.55
2023-04-25T23:18:33.536Z,10.85
2023-04-25T23:21:01.897Z,5.18
2023-04-25T23:23:29.057Z,7.63
2023-04-25T23:25:57.653Z,4.05
2023-04-25T23:28:24.506Z,5.63
2023-04-25T23:30:51.336Z,10.68
2023-04-25T23:33:18.589Z,9.55
2023-04-25T23:35:46.077Z,9.00
2023-04-25T23:38:13.615Z,6.45
2023-04-25T23:40:40.847Z,7.00
2023-04-25T23:43:07.493Z,7.97
2023-04-25T23:45:34.536Z,8.88
2023-04-25T23:48:02.724Z,11.48
2023-04-25T23:50:29.562Z,9.57
2023-04-25T23:52:56.144Z,10.43
2023-04-25T23:55:22.841Z,5.78
2023-04-25T23:57:49.468Z,7.85
